Time;durP1;ratioP1;P1;durP2;ratioP2;P2;SDS_P1;SDS_P2;PMS_P1;PMS_P2;Temp;Humidity;BMP_temperature;BMP_pressure;BME280_temperature;BME280_humidity;BME280_pressure;Samples;Min_cycle;Max_cycle;Signal;HPM_P1;HPM_P2
2021/06/08 00:01:05;;;;;;;11.82;10.55;;;;;;;21.42;68.29;101463.38;4974788;28;20051;-64
2021/06/08 00:03:33;;;;;;;14.25;10.30;;;;;;;21.42;68.47;101460.72;4955842;28;20047;-64
2021/06/08 00:06:00;;;;;;;12.13;9.45;;;;;;;21.43;68.38;101466.88;4955555;29;20053;-64
2021/06/08 00:08:27;;;;;;;14.23;9.82;;;;;;;21.41;68.24;101463.50;4955488;28;20047;-64
2021/06/08 00:10:55;;;;;;;14.07;10.55;;;;;;;21.40;68.62;101467.19;4955301;28;20094;-64
2021/06/08 00:13:22;;;;;;;11.95;9.88;;;;;;;21.38;68.47;101461.94;4955269;29;20043;-64
2021/06/08 00:15:49;;;;;;;12.60;10.63;;;;;;;;;;4955186;29;20118;-64
2021/06/08 00:18:15;;;;;;;11.50;10.40;;;;;;;21.33;68.66;101467.72;4955374;28;20050;-64
2021/06/08 00:20:42;;;;;;;13.10;10.20;;;;;;;21.32;68.64;101459.88;4955197;28;20050;-65
2021/06/08 00:23:11;;;;;;;14.40;11.23;;;;;;;21.33;68.89;101456.19;4955092;29;20393;-64
2021/06/08 00:25:38;;;;;;;15.38;10.80;;;;;;;21.33;69.10;101464.19;4955285;28;20047;-64
2021/06/08 00:28:08;;;;;;;12.52;11.20;;;;;;;21.31;68.81;101467.00;4955085;28;20047;-64
2021/06/08 00:30:38;;;;;;;14.25;11.02;;;;;;;21.29;69.18;101471.66;4955196;29;20098;-64
2021/06/08 00:33:06;;;;;;;12.25;10.98;;;;;;;21.29;68.52;101462.81;4953838;28;20054;-64
2021/06/08 00:35:34;;;;;;;12.82;11.30;;;;;;;21.28;68.84;101472.66;4954949;29;20043;-65
2021/06/08 00:38:01;;;;;;;14.27;10.65;;;;;;;21.27;69.17;101462.94;4954908;29;20460;-64
2021/06/08 00:40:28;;;;;;;13.00;11.02;;;;;;;21.27;68.99;101460.28;4954932;28;20086;-64
2021/06/08 00:42:56;;;;;;;14.82;12.10;;;;;;;21.27;69.12;101457.59;4954803;29;20047;-64
2021/06/08 00:45:23;;;;;;;14.65;10.85;;;;;;;21.27;69.01;101454.94;4953905;28;20054;-65
2021/06/08 00:47:51;;;;;;;13.05;11.65;;;;;;;21.25;69.22;101456.91;4954615;29;20047;-64
2021/06/08 00:50:19;;;;;;;11.60;10.40;;;;;;;21.23;69.28;101452.69;4954851;29;20481;-64
2021/06/08 00:52:51;;;;;;;13.13;10.98;;;;;;;21.20;68.66;101462.66;4954690;28;20047;-64
2021/06/08 00:55:21;;;;;;;14.07;10.85;;;;;;;21.17;68.80;101457.59;4954904;28;20050;-64
2021/06/08 00:57:52;;;;;;;11.75;10.25;;;;;;;21.16;68.88;101463.06;4954484;28;20485;-64
2021/06/08 01:00:21;;;;;;;12.48;11.13;;;;;;;21.15;68.76;101464.06;4954545;28;20047;-65
2021/06/08 01:02:49;;;;;;;12.77;11.07;;;;;;;21.14;68.77;101467.69;4954477;28;20061;-64
2021/06/08 01:05:17;;;;;;;13.15;11.15;;;;;;;21.14;68.71;101454.34;4954528;29;20129;-65
2021/06/08 01:07:44;;;;;;;14.50;10.90;;;;;;;21.12;69.24;101456.34;4954325;29;20106;-65
2021/06/08 01:10:13;;;;;;;16.38;10.98;;;;;;;21.12;69.19;101453.66;4954394;29;20054;-64
2021/06/08 01:12:40;;;;;;;12.32;10.55;;;;;;;21.10;69.20;101444.94;4954405;28;20516;-64
2021/06/08 01:15:07;;;;;;;13.10;9.93;;;;;;;21.09;68.79;101449.44;4954363;28;20055;-64
2021/06/08 01:17:34;;;;;;;13.43;10.65;;;;;;;21.09;68.97;101445.91;4954280;28;20528;-64
2021/06/08 01:20:04;;;;;;;13.48;10.90;;;;;;;21.08;69.25;101447.75;4954455;29;20114;-64
2021/06/08 01:22:30;;;;;;;14.80;10.73;;;;;;;21.07;69.35;101442.56;4954337;28;20047;-64
2021/06/08 01:24:58;;;;;;;12.60;10.70;;;;;;;21.14;68.90;101441.00;4954076;28;20052;-67
2021/06/08 01:27:25;;;;;;;13.20;10.88;;;;;;;21.11;68.82;101436.78;4954186;29;20519;-65
2021/06/08 01:29:54;;;;;;;12.90;10.32;;;;;;;21.04;69.25;101436.50;4954133;28;20051;-65
2021/06/08 01:32:24;;;;;;;13.60;10.70;;;;;;;21.04;69.01;101439.19;4954235;29;20054;-64
2021/06/08 01:34:53;;;;;;;14.23;11.18;;;;;;;21.05;69.24;101437.34;4954163;29;20051;-64
2021/06/08 01:37:20;;;;;;;14.25;11.55;;;;;;;21.06;69.04;101439.03;4954285;28;20417;-65
2021/06/08 01:39:47;;;;;;;13.13;11.73;;;;;;;21.07;69.22;101442.56;4954175;28;20054;-65
2021/06/08 01:42:16;;;;;;;14.02;11.40;;;;;;;21.05;69.54;101442.69;4954297;29;20493;-65
2021/06/08 01:44:44;;;;;;;12.68;11.38;;;;;;;21.04;69.12;101447.19;4954366;28;20412;-65
2021/06/08 01:47:12;;;;;;;12.15;10.52;;;;;;;21.04;69.58;101443.69;4954099;28;20047;-65
2021/06/08 01:49:40;;;;;;;12.43;10.55;;;;;;;21.04;69.31;101441.84;4954159;29;20058;-65
2021/06/08 01:52:13;;;;;;;14.23;10.40;;;;;;;21.03;69.18;101442.81;4954204;28;20412;-65
2021/06/08 01:55:04;;;;;;;12.02;10.30;;;;;;;21.02;69.01;101449.13;4954119;28;20047;-65
2021/06/08 01:57:34;;;;;;;12.00;10.70;;;;;;;21.01;68.75;101444.81;4957363;28;20052;-65
2021/06/08 02:00:13;;;;;;;13.25;9.85;;;;;;;20.99;69.11;101446.75;4957189;29;20905;-65
2021/06/08 02:02:58;;;;;;;11.93;10.27;;;;;;;20.97;68.62;101447.88;4957782;28;20168;-65
2021/06/08 02:05:50;;;;;;;12.70;10.38;;;;;;;20.94;68.77;101449.00;4957610;28;20098;-65
2021/06/08 02:09:00;;;;;;;14.18;11.38;;;;;;;20.92;68.46;101453.63;4956521;29;20058;-65
2021/06/08 02:11:41;;;;;;;12.15;10.65;;;;;;;20.90;69.14;101452.94;4957611;28;20416;-65
2021/06/08 02:14:28;;;;;;;11.93;10.63;;;;;;;20.89;68.82;101448.56;4957686;29;20126;-65
2021/06/08 02:17:07;;;;;;;13.35;10.73;;;;;;;20.87;68.67;101450.53;4957654;29;20058;-65
2021/06/08 02:19:36;;;;;;;13.65;11.13;;;;;;;20.86;68.84;101446.16;4957498;29;20043;-65
2021/06/08 02:22:06;;;;;;;15.75;10.35;;;;;;;20.86;69.04;101448.81;4957214;28;20055;-65
2021/06/08 02:24:35;;;;;;;12.25;10.18;;;;;;;20.83;68.58;101447.28;4957287;28;20524;-65
2021/06/08 02:27:09;;;;;;;13.55;9.82;;;;;;;20.82;68.77;101442.94;4957282;29;20057;-65
2021/06/08 02:29:38;;;;;;;11.57;9.97;;;;;;;20.82;68.91;101445.63;4957371;28;20043;-65
2021/06/08 02:32:08;;;;;;;12.80;10.00;;;;;;;20.78;68.83;101444.19;4957343;28;20047;-65
2021/06/08 02:34:36;;;;;;;10.55;9.18;;;;;;;20.77;68.78;101447.81;4957442;29;20043;-65
2021/06/08 02:37:04;;;;;;;11.82;8.57;;;;;;;20.76;68.28;101445.31;4957242;28;20051;-65
2021/06/08 02:39:31;;;;;;;11.35;8.95;;;;;;;20.74;68.15;101448.09;4957033;28;20062;-65
2021/06/08 02:41:58;;;;;;;9.93;8.80;;;;;;;20.72;68.41;101444.72;4957090;28;20047;-65
2021/06/08 02:44:25;;;;;;;9.32;8.27;;;;;;;20.72;68.49;101444.72;4957105;28;20047;-65
2021/06/08 02:46:54;;;;;;;9.90;8.23;;;;;;;20.67;68.01;101444.25;4956950;28;20465;-65
2021/06/08 02:49:23;;;;;;;10.00;8.25;;;;;;;20.67;67.82;101445.13;4956929;28;20051;-65
2021/06/08 02:51:49;;;;;;;9.07;8.02;;;;;;;20.65;68.17;101444.41;4956722;28;20054;-64
2021/06/08 02:54:19;;;;;;;10.80;8.07;;;;;;;20.64;68.11;101442.72;4956812;29;20047;-65
2021/06/08 02:56:47;;;;;;;11.75;8.60;;;;;;;20.62;67.83;101446.50;4956876;28;20047;-65
2021/06/08 02:59:15;;;;;;;12.27;8.60;;;;;;;20.61;67.91;101451.00;4957099;28;20417;-65
2021/06/08 03:01:47;;;;;;;10.95;7.60;;;;;;;20.59;67.70;101450.28;4968467;28;20077;-65
2021/06/08 03:04:17;;;;;;;13.50;7.50;;;;;;;20.58;67.39;101455.75;4971818;28;20105;-65
2021/06/08 03:06:53;;;;;;;8.35;7.45;;;;;;;20.57;67.37;101452.25;4972393;28;20042;-65
2021/06/08 03:09:36;;;;;;;11.85;7.60;;;;;;;20.56;67.31;101451.38;4971964;28;20058;-65
2021/06/08 03:12:08;;;;;;;9.85;6.70;;;;;;;20.55;67.59;101454.19;4972663;28;20105;-65
2021/06/08 03:14:37;;;;;;;14.30;8.02;;;;;;;20.52;67.10;101460.66;4967768;28;20102;-64
2021/06/08 03:17:05;;;;;;;11.18;7.03;;;;;;;20.52;67.18;101463.31;4953040;28;20073;-65
2021/06/08 03:19:34;;;;;;;8.68;7.63;;;;;;;20.51;67.02;101463.44;4953085;28;20083;-65
2021/06/08 03:22:11;;;;;;;7.88;6.68;;;;;;;20.49;67.25;101458.25;4952982;29;20055;-65
2021/06/08 03:24:40;;;;;;;12.52;6.65;;;;;;;20.48;67.29;101459.22;4952538;29;20055;-65
2021/06/08 03:27:09;;;;;;;9.35;6.28;;;;;;;20.50;67.18;101459.09;4952881;29;20054;-65
2021/06/08 03:29:36;;;;;;;8.85;6.90;;;;;;;20.49;66.93;101457.41;4952874;29;20065;-65
2021/06/08 03:32:04;;;;;;;9.60;6.93;;;;;;;20.46;67.53;101466.50;4953002;28;20059;-65
2021/06/08 03:34:46;;;;;;;11.88;6.72;;;;;;;20.45;67.58;101463.97;4951692;28;20058;-65
2021/06/08 03:37:15;;;;;;;9.73;6.53;;;;;;;20.44;66.90;101462.28;4953126;28;20519;-65
2021/06/08 03:39:43;;;;;;;13.02;6.93;;;;;;;20.44;66.93;101470.28;4952983;28;20091;-65
2021/06/08 03:42:11;;;;;;;12.18;6.28;;;;;;;20.43;66.71;101463.25;4952744;28;20043;-65
2021/06/08 03:44:38;;;;;;;13.18;6.07;;;;;;;20.44;66.54;101459.63;4952727;28;20051;-65
2021/06/08 03:47:05;;;;;;;10.40;7.13;;;;;;;20.44;66.92;101471.13;4952597;28;20061;-65
2021/06/08 03:49:33;;;;;;;8.45;6.43;;;;;;;20.43;66.52;101466.78;4952588;28;20449;-65
2021/06/08 03:51:59;;;;;;;9.90;7.45;;;;;;;20.42;66.74;101467.75;4952527;28;20058;-65
2021/06/08 03:54:26;;;;;;;12.63;7.20;;;;;;;20.42;66.47;101462.44;4952671;28;20051;-65
2021/06/08 03:56:57;;;;;;;10.13;7.13;;;;;;;20.39;66.54;101460.88;4952528;28;20062;-65
2021/06/08 03:59:26;;;;;;;11.52;7.13;;;;;;;20.40;66.66;101469.72;4952847;29;20058;-65
2021/06/08 04:01:54;;;;;;;9.35;7.13;;;;;;;20.37;66.75;101470.00;4952504;28;20069;-65
2021/06/08 04:04:22;;;;;;;13.95;7.25;;;;;;;20.38;66.98;101469.00;4952310;29;20514;-65
2021/06/08 04:06:49;;;;;;;16.52;7.07;;;;;;;20.38;66.49;101469.00;4952046;28;20520;-65
2021/06/08 04:09:18;;;;;;;12.27;7.00;;;;;;;20.39;66.50;101470.69;4952408;28;20082;-65
2021/06/08 04:11:49;;;;;;;11.63;7.03;;;;;;;20.39;66.94;101474.19;4952109;28;20054;-65
2021/06/08 04:14:16;;;;;;;12.20;6.03;;;;;;;20.40;66.49;101467.03;4952376;28;20126;-65
2021/06/08 04:16:44;;;;;;;8.63;5.75;;;;;;;20.42;66.71;101482.91;4952186;28;20043;-65
2021/06/08 04:19:14;;;;;;;11.32;6.20;;;;;;;20.39;66.73;101476.00;4951911;28;20460;-65
2021/06/08 04:21:43;;;;;;;6.78;5.13;;;;;;;20.42;66.42;101475.75;4951927;28;20051;-65
2021/06/08 04:24:10;;;;;;;7.80;5.50;;;;;;;20.41;66.50;101479.41;4951800;28;20055;-65
2021/06/08 04:26:38;;;;;;;7.82;5.15;;;;;;;20.42;66.81;101480.22;4952024;28;20063;-65
2021/06/08 04:29:06;;;;;;;5.72;5.10;;;;;;;20.43;66.37;101477.44;4951731;28;20055;-65
2021/06/08 04:31:35;;;;;;;8.07;5.53;;;;;;;20.43;66.76;101477.44;4951665;28;20098;-65
2021/06/08 04:34:02;;;;;;;6.85;5.22;;;;;;;20.46;66.70;101479.00;4951600;29;20055;-65
2021/06/08 04:36:29;;;;;;;6.50;5.53;;;;;;;20.47;66.68;101470.88;4951700;28;20058;-65
2021/06/08 04:38:55;;;;;;;9.50;6.28;;;;;;;20.50;66.84;101477.75;4951794;28;20055;-65
2021/06/08 04:41:23;;;;;;;7.07;5.00;;;;;;;20.52;66.73;101475.81;4951607;28;20043;-65
2021/06/08 04:43:49;;;;;;;7.53;5.50;;;;;;;20.54;67.15;101474.69;4951613;29;20043;-65
2021/06/08 04:46:18;;;;;;;10.15;6.50;;;;;;;20.59;66.98;101476.09;4951452;28;20457;-65
2021/06/08 04:48:45;;;;;;;9.52;6.15;;;;;;;20.62;67.22;101473.16;4951383;29;20069;-65
2021/06/08 04:51:12;;;;;;;6.55;5.78;;;;;;;20.65;67.72;101480.91;4951630;28;20051;-65
2021/06/08 04:53:41;;;;;;;8.63;6.43;;;;;;;20.70;67.99;101484.88;4951529;28;20058;-65
2021/06/08 04:56:08;;;;;;;9.35;5.90;;;;;;;20.73;68.07;101482.94;4951334;29;20478;-65
2021/06/08 04:58:38;;;;;;;7.82;6.18;;;;;;;20.76;67.98;101491.50;4951537;28;20107;-65
2021/06/08 05:01:24;;;;;;;8.93;6.25;;;;;;;20.81;68.16;101483.94;4951494;28;20405;-65
2021/06/08 05:03:55;;;;;;;8.88;6.80;;;;;;;20.85;68.70;101489.84;4951191;29;20047;-65
2021/06/08 05:06:31;;;;;;;8.52;6.07;;;;;;;20.86;68.51;101484.38;4951376;28;20114;-66
2021/06/08 05:09:02;;;;;;;8.40;5.82;;;;;;;20.90;68.87;101484.09;4951231;28;20110;-65
2021/06/08 05:11:45;;;;;;;7.88;5.53;;;;;;;20.93;68.85;101487.31;4951679;28;20055;-69
2021/06/08 05:14:14;;;;;;;9.02;5.90;;;;;;;20.98;69.06;101486.94;4951137;28;20058;-65
2021/06/08 05:16:45;;;;;;;7.25;5.68;;;;;;;21.04;68.56;101491.72;4951165;29;20051;-65
2021/06/08 05:19:13;;;;;;;9.88;6.40;;;;;;;21.06;68.88;101491.56;4959915;28;20062;-65
2021/06/08 05:21:45;;;;;;;6.97;5.68;;;;;;;21.08;68.76;101492.25;4970265;28;20055;-65
2021/06/08 05:24:14;;;;;;;7.45;6.13;;;;;;;21.11;68.28;101492.00;4969807;28;20066;-65
2021/06/08 05:26:52;;;;;;;7.00;5.55;;;;;;;21.12;68.11;101489.19;4954727;28;20055;-65
2021/06/08 05:29:22;;;;;;;7.93;5.65;;;;;;;21.16;68.13;101497.78;4958129;28;20098;-65
2021/06/08 05:31:50;;;;;;;10.05;6.00;;;;;;;21.18;67.45;101493.97;4969751;28;20514;-65
2021/06/08 05:34:20;;;;;;;9.52;6.38;;;;;;;21.22;67.21;101494.56;4970566;28;20055;-65
2021/06/08 05:36:47;;;;;;;7.18;6.20;;;;;;;21.25;67.11;101498.78;4969979;28;20053;-65
2021/06/08 05:39:13;;;;;;;10.27;6.13;;;;;;;21.29;67.25;101502.84;4969993;28;20054;-65
2021/06/08 05:41:40;;;;;;;11.57;6.70;;;;;;;21.32;67.33;101498.06;4970106;28;20055;-65
2021/06/08 05:44:10;;;;;;;10.85;6.13;;;;;;;21.36;67.67;101494.13;4970121;28;20054;-65
2021/06/08 05:46:37;;;;;;;7.68;6.70;;;;;;;21.37;67.21;101495.81;4961290;28;20540;-65
2021/06/08 05:49:06;;;;;;;8.13;6.38;;;;;;;21.43;67.18;101493.59;4950930;29;20398;-65
2021/06/08 05:51:34;;;;;;;9.00;6.32;;;;;;;21.48;67.09;101491.34;4962491;28;20488;-65
2021/06/08 05:54:04;;;;;;;7.55;6.32;;;;;;;21.47;67.30;101493.16;4970015;28;20054;-65
2021/06/08 05:56:34;;;;;;;7.47;6.28;;;;;;;21.47;66.82;101498.50;4970259;28;20046;-65
2021/06/08 05:59:01;;;;;;;6.03;5.20;;;;;;;21.49;66.33;101496.53;4970088;28;20059;-65
2021/06/08 06:01:29;;;;;;;6.15;5.40;;;;;;;21.53;66.17;101494.44;4969827;28;20051;-65
2021/06/08 06:03:56;;;;;;;6.95;5.90;;;;;;;21.56;65.60;101493.34;4967303;28;20055;-65
2021/06/08 06:06:24;;;;;;;9.30;5.78;;;;;;;21.59;65.50;101496.56;4968844;28;20043;-70
2021/06/08 06:08:51;;;;;;;6.43;5.28;;;;;;;21.63;65.24;101489.13;4969285;28;20102;-70
2021/06/08 06:11:19;;;;;;;6.55;4.18;;;;;;;21.67;64.71;101496.72;4969606;28;20057;-70
2021/06/08 06:13:53;;;;;;;5.47;4.53;;;;;;;21.71;64.53;101499.94;4969498;28;20043;-69
2021/06/08 06:16:22;;;;;;;5.25;3.95;;;;;;;21.74;63.76;101496.13;4969331;28;20846;-70
2021/06/08 06:18:50;;;;;;;5.40;4.40;;;;;;;21.79;63.51;101501.91;4969196;28;20421;-69
2021/06/08 06:21:18;;;;;;;4.43;4.03;;;;;;;21.84;63.23;101507.69;4969212;28;20101;-73
2021/06/08 06:23:45;;;;;;;11.82;5.05;;;;;;;21.89;63.20;101501.88;4968896;28;20105;-69
2021/06/08 06:26:12;;;;;;;6.13;3.58;;;;;;;21.95;62.79;101501.31;4969562;28;20566;-66
2021/06/08 06:28:40;;;;;;;5.55;4.05;;;;;;;22.02;62.54;101507.78;4968290;28;20057;-68
2021/06/08 06:31:08;;;;;;;6.13;5.10;;;;;;;22.09;62.19;101508.03;4968553;28;20050;-67
2021/06/08 06:33:35;;;;;;;5.75;4.35;;;;;;;22.15;62.02;101508.31;4969521;28;20126;-68
2021/06/08 06:36:06;;;;;;;10.73;4.45;;;;;;;22.19;60.90;101506.19;4957414;28;20122;-67
2021/06/08 06:38:35;;;;;;;9.77;4.45;;;;;;;22.29;61.18;101501.66;4967809;28;20054;-62
2021/06/08 06:41:08;;;;;;;25.73;4.72;;;;;;;22.44;61.92;101512.75;4968292;28;20053;-60
2021/06/08 06:43:38;;;;;;;6.45;4.18;;;;;;;22.55;61.97;101508.22;4970202;28;20389;-60
2021/06/08 06:46:05;;;;;;;8.00;4.70;;;;;;;22.61;60.95;101508.50;4967252;28;20049;-60
2021/06/08 06:48:32;;;;;;;7.97;4.85;;;;;;;22.70;59.77;101513.94;4952224;28;20136;-60
2021/06/08 06:51:00;;;;;;;7.72;4.13;;;;;;;22.78;58.91;101514.03;4952784;28;20134;-60
2021/06/08 06:53:29;;;;;;;6.72;4.10;;;;;;;22.85;59.20;101512.44;4952699;28;20102;-60
2021/06/08 06:55:56;;;;;;;6.65;4.50;;;;;;;22.88;58.47;101514.84;4952448;29;20047;-60
2021/06/08 06:58:23;;;;;;;6.93;3.67;;;;;;;22.96;57.73;101511.41;4951978;28;20051;-60
2021/06/08 07:00:52;;;;;;;8.00;4.45;;;;;;;23.03;57.63;101512.47;4951800;28;20058;-62
2021/06/08 07:03:30;;;;;;;4.95;4.38;;;;;;;23.08;56.94;101509.34;4951814;29;20106;-60
2021/06/08 07:05:58;;;;;;;4.30;3.90;;;;;;;23.12;56.51;101511.59;4951637;28;20054;-60
2021/06/08 07:08:26;;;;;;;5.13;4.13;;;;;;;23.18;55.59;101507.50;4959758;28;20086;-61
2021/06/08 07:10:55;;;;;;;6.22;3.88;;;;;;;23.23;55.70;101505.19;4971318;28;20500;-60
2021/06/08 07:13:23;;;;;;;5.05;4.10;;;;;;;23.32;55.48;101511.47;4971306;28;20057;-60
2021/06/08 07:15:54;;;;;;;6.97;4.38;;;;;;;23.41;55.20;101512.41;4971379;28;20507;-60
2021/06/08 07:18:40;;;;;;;8.02;4.68;;;;;;;23.46;54.54;101510.09;4971660;28;20078;-62
2021/06/08 07:21:12;;;;;;;6.85;3.38;;;;;;;23.52;54.47;101508.66;4972227;28;20051;-60
2021/06/08 07:23:39;;;;;;;6.85;5.10;;;;;;;23.54;54.60;101502.16;4965251;28;20055;-60
2021/06/08 07:26:07;;;;;;;5.47;4.43;;;;;;;23.61;54.79;101507.75;4969524;28;20047;-60
2021/06/08 07:28:41;;;;;;;5.90;4.57;;;;;;;23.67;54.59;101504.44;4970852;28;20051;-61
2021/06/08 07:31:13;;;;;;;7.97;5.80;;;;;;;23.76;54.52;101495.47;4958748;28;20563;-63
2021/06/08 07:33:53;;;;;;;6.95;5.40;;;;;;;23.81;54.19;101497.69;4968583;28;20043;-65
2021/06/08 07:36:58;;;;;;;5.93;5.30;;;;;;;23.84;54.07;101486.63;4966936;28;20058;-65
2021/06/08 07:40:01;;;;;;;5.72;5.22;;;;;;;23.91;54.15;101495.78;4967330;28;20047;-65
2021/06/08 07:43:09;;;;;;;6.00;5.50;;;;;;;23.99;53.62;101492.31;4967838;28;20053;-67
2021/06/08 07:45:49;;;;;;;5.63;5.05;;;;;;;24.08;53.33;101488.69;4969728;28;20074;-67
2021/06/08 07:48:33;;;;;;;8.35;6.43;;;;;;;24.16;53.54;101487.88;4969147;28;20054;-67
2021/06/08 07:51:35;;;;;;;5.68;5.05;;;;;;;24.24;54.59;101482.59;4980584;28;20054;-67
2021/06/08 07:54:32;;;;;;;10.07;5.45;;;;;;;24.34;54.38;101481.63;4979633;28;20109;-67
2021/06/08 07:57:28;;;;;;;6.65;6.00;;;;;;;24.42;53.23;101484.34;4966255;28;20059;-67
2021/06/08 08:00:12;;;;;;;4.93;4.38;;;;;;;24.52;53.51;101482.41;4968321;28;20100;-65
2021/06/08 08:02:40;;;;;;;7.15;6.35;;;;;;;24.62;53.96;101487.63;4981359;28;20063;-66
2021/06/08 08:05:25;;;;;;;5.75;4.85;;;;;;;24.61;52.08;101486.78;4982512;28;20113;-67
2021/06/08 08:07:53;;;;;;;18.00;14.52;;;;;;;24.58;51.68;101487.13;4967219;28;20054;-65
2021/06/08 08:10:26;;;;;;;6.97;5.40;;;;;;;24.57;51.87;101485.44;4970021;28;20066;-65
2021/06/08 08:13:01;;;;;;;5.85;4.80;;;;;;;24.54;51.84;101484.91;4970134;28;20043;-65
2021/06/08 08:15:31;;;;;;;7.05;4.93;;;;;;;24.52;51.48;101492.25;4969868;28;20057;-66
2021/06/08 08:18:03;;;;;;;5.05;4.55;;;;;;;24.55;50.81;101489.28;4968885;28;20051;-66
2021/06/08 08:20:51;;;;;;;7.18;4.65;;;;;;;24.65;50.69;101479.28;4970294;28;20137;-65
2021/06/08 08:23:21;;;;;;;5.85;4.47;;;;;;;24.73;50.67;101481.16;4977738;28;20574;-66
2021/06/08 08:26:11;;;;;;;4.32;2.90;;;;;;;24.92;50.81;101491.63;4954532;28;20058;-65
2021/06/08 08:29:03;;;;;;;3.47;3.00;;;;;;;25.17;50.49;101486.31;4969761;28;20106;-65
2021/06/08 08:31:37;;;;;;;2.80;2.50;;;;;;;25.40;49.65;101486.53;4969996;28;20080;-66
2021/06/08 08:34:07;;;;;;;7.80;4.05;;;;;;;25.53;48.76;101482.50;4968189;28;20061;-64
2021/06/08 08:37:02;;;;;;;4.95;3.17;;;;;;;25.65;47.98;101473.09;4971909;28;20054;-65
2021/06/08 08:39:28;;;;;;;4.57;3.08;;;;;;;25.77;47.83;101478.16;4966841;28;20047;-66
2021/06/08 08:41:58;;;;;;;4.72;3.50;;;;;;;25.78;47.65;101477.97;4968991;28;20047;-65
2021/06/08 08:44:27;;;;;;;3.85;2.97;;;;;;;25.82;47.07;101476.63;4969666;28;20150;-66
2021/06/08 08:47:39;;;;;;;4.32;3.10;;;;;;;25.94;46.64;101476.25;4958635;28;20057;-66
2021/06/08 08:50:09;;;;;;;5.05;2.80;;;;;;;26.07;46.15;101472.06;4968074;28;20050;-66
2021/06/08 08:52:55;;;;;;;3.30;2.60;;;;;;;26.18;45.92;101470.88;4969371;28;20251;-66
2021/06/08 08:55:45;;;;;;;4.55;2.80;;;;;;;26.32;45.87;101477.38;4968079;28;20054;-66
2021/06/08 08:58:17;;;;;;;4.53;3.00;;;;;;;26.43;45.13;101472.63;4950099;28;20110;-66
2021/06/08 09:00:46;;;;;;;5.63;3.22;;;;;;;26.51;44.98;101468.06;4950141;28;20051;-65
2021/06/08 09:03:18;;;;;;;4.07;3.10;;;;;;;26.61;44.48;101467.00;4949870;28;20051;-66
2021/06/08 09:06:04;;;;;;;7.60;3.58;;;;;;;26.70;44.62;101463.25;4965227;28;20050;-66
2021/06/08 09:08:47;;;;;;;4.57;3.45;;;;;;;26.81;44.83;101465.59;4969537;28;20043;-67
2021/06/08 09:11:19;;;;;;;;;;;;;;;26.92;44.68;101466.19;4968593;28;20046;-67
2021/06/08 09:13:48;;;;;;;4.00;2.92;;;;;;;26.99;43.67;101465.31;4968875;28;19929;-66
2021/06/08 09:17:04;;;;;;;5.20;3.47;;;;;;;27.11;44.46;101463.06;4967111;28;20047;-66
2021/06/08 09:19:53;;;;;;;4.30;3.10;;;;;;;27.21;44.18;101454.72;4968350;28;20555;-66
2021/06/08 09:22:22;;;;;;;4.25;2.72;;;;;;;27.33;43.73;101463.22;4969070;28;20118;-67
2021/06/08 09:24:56;;;;;;;3.97;3.42;;;;;;;27.43;43.79;101454.94;4982156;28;20059;-67
2021/06/08 09:27:53;;;;;;;23.25;4.03;;;;;;;27.56;44.00;101459.72;4967600;28;20061;-66
2021/06/08 09:30:50;;;;;;;4.32;3.00;;;;;;;27.66;43.28;101447.63;4964164;28;20105;-67
2021/06/08 09:33:39;;;;;;;3.38;3.08;;;;;;;27.77;42.94;101450.91;4964493;28;20051;-67
2021/06/08 09:36:39;;;;;;;6.95;3.03;;;;;;;27.88;41.67;101445.06;4962131;28;20638;-67
2021/06/08 09:39:37;;;;;;;3.08;2.78;;;;;;;27.95;42.07;101448.69;4949430;29;20063;-66
2021/06/08 09:42:45;;;;;;;4.70;3.72;;;;;;;28.04;41.47;101446.78;4958257;28;20051;-68
2021/06/08 09:45:42;;;;;;;3.65;3.20;;;;;;;28.13;41.54;101447.53;4949224;28;20496;-67
2021/06/08 09:48:19;;;;;;;4.60;3.63;;;;;;;28.13;41.91;101439.44;4949515;28;20070;-67
2021/06/08 09:51:13;;;;;;;5.28;3.80;;;;;;;28.11;42.35;101438.78;4951227;28;20055;-67
2021/06/08 09:53:41;;;;;;;5.28;4.07;;;;;;;28.18;42.35;101440.53;4966530;28;20050;-68
2021/06/08 09:56:09;;;;;;;4.57;3.70;;;;;;;28.16;41.99;101437.22;4968613;28;20050;-65
2021/06/08 09:58:54;;;;;;;5.78;3.78;;;;;;;28.14;42.68;101433.84;4967641;28;20047;-67
2021/06/08 10:01:28;;;;;;;5.88;3.22;;;;;;;28.25;41.97;101435.25;4959492;28;20493;-67
2021/06/08 10:04:06;;;;;;;3.28;2.78;;;;;;;28.39;41.69;101435.41;4966310;28;20508;-66
2021/06/08 10:06:53;;;;;;;3.40;2.80;;;;;;;28.46;40.69;101437.16;4948607;28;20048;-67
2021/06/08 10:09:22;;;;;;;5.65;2.85;;;;;;;28.49;40.16;101423.28;4948939;29;20078;-66
2021/06/08 10:12:37;;;;;;;4.35;3.80;;;;;;;28.66;40.52;101431.16;4948206;29;20070;-67
2021/06/08 10:15:10;;;;;;;4.78;2.72;;;;;;;28.62;40.26;101427.16;4948847;28;20485;-68
2021/06/08 10:18:00;;;;;;;3.10;2.83;;;;;;;28.24;39.88;101430.88;4950846;28;20184;-67
2021/06/08 10:20:40;;;;;;;5.00;3.25;;;;;;;28.43;38.00;101418.66;4953280;28;20063;-68
2021/06/08 10:23:30;;;;;;;4.30;3.28;;;;;;;28.70;38.48;101416.28;4953551;28;20114;-68
2021/06/08 10:26:02;;;;;;;3.55;3.25;;;;;;;28.90;38.53;101411.09;4953503;28;20094;-68
2021/06/08 10:28:29;;;;;;;4.05;3.40;;;;;;;29.07;38.11;101411.66;4953581;28;20051;-66
2021/06/08 10:30:57;;;;;;;3.80;3.40;;;;;;;29.20;37.90;101412.81;4953470;28;20489;-68
2021/06/08 10:33:45;;;;;;;3.95;3.20;;;;;;;29.22;38.23;101410.78;4953761;28;20055;-68
2021/06/08 10:36:25;;;;;;;5.30;4.55;;;;;;;29.28;38.37;101410.00;4967844;28;20478;-67
2021/06/08 10:38:59;;;;;;;6.55;3.83;;;;;;;29.43;38.14;101405.38;4970743;28;20047;-68
2021/06/08 10:41:37;;;;;;;5.47;3.67;;;;;;;29.58;37.99;101410.66;4958435;28;20749;-68
2021/06/08 10:44:05;;;;;;;4.15;3.47;;;;;;;29.72;38.08;101400.75;4959084;28;20054;-67
2021/06/08 10:46:44;;;;;;;4.00;2.50;;;;;;;29.76;37.03;101398.50;4963804;28;20042;-61
2021/06/08 10:49:14;;;;;;;3.40;3.10;;;;;;;29.61;36.58;101394.03;4983113;28;20049;-62
2021/06/08 10:52:03;;;;;;;3.05;2.65;;;;;;;29.53;36.71;101401.47;4985977;28;20050;-63
2021/06/08 10:54:43;;;;;;;3.25;2.95;;;;;;;29.46;35.94;101393.31;4955982;28;20110;-64
2021/06/08 10:57:14;;;;;;;3.38;2.67;;;;;;;29.36;35.33;101395.50;4956398;28;20054;-64
2021/06/08 10:59:46;;;;;;;2.65;2.35;;;;;;;29.29;34.60;101390.91;4953346;28;20078;-65
2021/06/08 11:02:43;;;;;;;3.42;3.13;;;;;;;29.28;35.17;101389.22;4956555;28;20443;-63
2021/06/08 11:05:13;;;;;;;2.90;2.70;;;;;;;29.28;35.13;101375.72;4966487;28;20047;-62
2021/06/08 11:07:46;;;;;;;4.30;3.10;;;;;;;29.35;35.28;101370.34;4964805;28;20039;-62
2021/06/08 11:10:31;;;;;;;4.30;2.78;;;;;;;29.42;35.85;101365.81;4979676;28;20050;-64
2021/06/08 11:13:07;;;;;;;3.25;2.65;;;;;;;29.52;36.58;101368.16;4975537;28;20048;-64
2021/06/08 11:15:38;;;;;;;4.18;2.78;;;;;;;29.56;36.12;101363.19;4971931;28;20500;-63
2021/06/08 11:18:36;;;;;;;4.95;2.38;;;;;;;29.61;35.33;101358.88;4990681;28;20101;-65
2021/06/08 11:21:03;;;;;;;2.75;2.35;;;;;;;29.62;35.16;101352.44;4960207;28;20051;-67
2021/06/08 11:23:42;;;;;;;3.80;2.88;;;;;;;29.59;35.80;101347.41;4953612;28;20542;-65
2021/06/08 11:26:16;;;;;;;3.80;3.00;;;;;;;29.60;35.80;101362.63;4982711;28;20054;-65
2021/06/08 11:28:47;;;;;;;4.83;2.90;;;;;;;29.62;36.25;101357.00;4989458;28;20054;-65
2021/06/08 11:31:15;;;;;;;3.03;2.70;;;;;;;29.58;36.37;101350.31;4989572;28;20050;-66
2021/06/08 11:33:44;;;;;;;2.83;2.30;;;;;;;29.40;36.78;101354.38;4988242;28;20493;-66
2021/06/08 11:36:21;;;;;;;3.35;2.60;;;;;;;29.23;36.17;101359.22;4976015;28;20496;-63
2021/06/08 11:38:50;;;;;;;3.50;2.75;;;;;;;29.26;35.90;101357.97;4971733;28;20051;-63
2021/06/08 11:41:18;;;;;;;4.68;2.75;;;;;;;29.30;35.97;101343.06;4971880;28;20085;-63
2021/06/08 11:43:55;;;;;;;3.67;2.20;;;;;;;29.36;35.69;101352.25;4970678;28;20135;-65
2021/06/08 11:46:28;;;;;;;3.03;2.40;;;;;;;29.37;35.18;101343.97;4971138;28;20054;-65
2021/06/08 11:49:12;;;;;;;4.93;2.70;;;;;;;29.42;34.73;101337.94;4971014;28;20047;-62
2021/06/08 11:52:06;;;;;;;2.67;2.47;;;;;;;29.45;34.38;101334.84;4969060;28;20074;-63